Ikan Parang — 9V9099 — position and weather

sailwx.info

Track history (hours):
 
Tides and Currents Weather Stations Pressure Air Temp Water Temp Dewpoint Dewpoint Depression Visibility Wind Speed Wind Dir Waves Ship Positions

Ikan Parang

Last reported at 2017-Oct-18 20:31 UTC. Time now 2017-Oct-18 20:40 UTC.
Position N 55°53' E 016°11'.

Length 183 m; draft 7.6 m.

Type: Cargo ship. MMSI: 566238000.

Date/timePositionNaut miles runAvg speedWind from/ knotsBaromVisibWave heightAir tempDewpointWater temp
2017-Oct-18 20:31N 55°53' E 016°11'713.2
2017-Oct-18 20:01N 55°50' E 016°00'713.3
2017-Oct-18 19:31N 55°46' E 015°50'612.7
2017-Oct-18 19:01N 55°43' E 015°41'713.0
2017-Oct-18 18:31N 55°40' E 015°31'713.7
2017-Oct-18 18:00N 55°36' E 015°21'713.8
2017-Oct-18 17:30N 55°33' E 015°09'713.8
2017-Oct-18 17:00N 55°30' E 014°58'713.9
2017-Oct-18 16:28N 55°26' E 014°47'613.7
2017-Oct-18 16:00N 55°23' E 014°38'713.6
2017-Oct-18 15:30N 55°17' E 014°30'713.7
2017-Oct-18 15:00N 55°12' E 014°23'1413.7
2017-Oct-18 14:00N 55°01' E 014°08'813.8
2017-Oct-18 13:27N 54°59' E 013°55'814.8
2017-Oct-18 12:56N 54°56' E 013°43'4213.2
2017-Oct-18 09:47N 54°41' E 012°36'412.8
2017-Oct-18 09:30N 54°39' E 012°31'612.3
2017-Oct-18 09:00N 54°36' E 012°22'612.6
2017-Oct-18 08:30N 54°30' E 012°16'612.2
2017-Oct-18 08:00N 54°25' E 012°11'79 8.6
2017-Oct-17 22:48N 54°21' E 009°55'2 5.1
2017-Oct-17 22:30N 54°21' E 009°53'3 6.3
2017-Oct-17 22:00N 54°22' E 009°48'3 6.7
2017-Oct-17 21:30N 54°20' E 009°43'3 5.3
2017-Oct-17 21:00N 54°18' E 009°40'3 5.9
2017-Oct-17 20:30N 54°15' E 009°37'3 6.2
2017-Oct-17 20:00N 54°13' E 009°35'3 6.5
2017-Oct-17 19:30N 54°11' E 009°30'3 6.9
2017-Oct-17 19:00N 54°10' E 009°24'3 5.8
2017-Oct-17 18:30N 54°08' E 009°20'3 6.6
2017-Oct-17 18:00N 54°05' E 009°19'4 7.1
2017-Oct-17 17:30N 54°01' E 009°18'3 6.6
2017-Oct-17 17:00N 53°58' E 009°16'3 6.8
2017-Oct-17 16:30N 53°56' E 009°12'2 3.8
2017-Oct-17 16:00N 53°54' E 009°10'1 2.0
2017-Oct-17 15:30N 53°54' E 009°09'0 0.0
2017-Oct-17 15:00N 53°54' E 009°09'1 2.4
2017-Oct-17 14:30N 53°53' E 009°07'2 5.0
2017-Oct-17 14:01N 53°52' E 009°03'1 2.4
2017-Oct-17 13:31N 53°52' E 009°01'0 0.3
2017-Oct-17 13:00N 53°52' E 009°01'0 0.1
2017-Oct-17 12:30N 53°52' E 009°01'0 0.1
2017-Oct-17 12:00N 53°52' E 009°01'0 0.0
2017-Oct-17 11:30N 53°52' E 009°01'0 0.0
2017-Oct-17 11:00N 53°52' E 009°01'0 0.0
2017-Oct-17 10:30N 53°52' E 009°01'0 0.1
2017-Oct-17 10:00N 53°52' E 009°01'0 0.1
2017-Oct-17 09:30N 53°52' E 009°01'0 0.1
2017-Oct-17 09:00N 53°52' E 009°01'0 0.0
2017-Oct-17 08:30N 53°52' E 009°01'0 0.0
2017-Oct-17 08:00N 53°52' E 009°01'0 0.0
2017-Oct-17 07:31N 53°52' E 009°01'0 0.0
2017-Oct-17 07:01N 53°52' E 009°01'0 0.5
2017-Oct-17 06:31N 53°52' E 009°01'4 7.2
2017-Oct-17 06:00N 53°51' E 008°55'511.0
2017-Oct-17 05:30N 53°51' E 008°46'510.8
2017-Oct-17 05:01N 53°55' E 008°40'711.4
2017-Oct-17 04:25N 53°58' E 008°30'511.8
2017-Oct-17 03:59N 53°59' E 008°22'6411.1
2017-Oct-16 22:13N 53°47' E 006°35'4010.3
2017-Oct-16 18:22N 53°34' E 005°31'410.6
2017-Oct-16 17:59N 53°33' E 005°25'4 9.3
2017-Oct-16 17:30N 53°32' E 005°18'5 9.2
2017-Oct-16 17:00N 53°30' E 005°10'5 9.4
2017-Oct-16 16:31N 53°29' E 005°03'5 9.6
2017-Oct-16 16:00N 53°27' E 004°55'5 9.7
2017-Oct-16 15:29N 53°25' E 004°48'811.5
2017-Oct-16 14:47N 53°19' E 004°39'413.3
2017-Oct-16 14:30N 53°15' E 004°37'15 9.7
2017-Oct-16 12:54N 53°02' E 004°22'711.5
2017-Oct-16 12:19N 52°56' E 004°18'412.2
2017-Oct-16 12:00N 52°53' E 004°15'612.3
2017-Oct-16 11:30N 52°48' E 004°10'611.6
2017-Oct-16 10:59N 52°42' E 004°05'4 9.3
2017-Oct-16 10:30N 52°39' E 003°60'611.4
2017-Oct-16 10:00N 52°35' E 003°54'611.0
2017-Oct-16 09:29N 52°31' E 003°46'2011.7
2017-Oct-16 07:47N 52°18' E 003°22'512.2
2017-Oct-16 07:24N 52°15' E 003°16'612.0
2017-Oct-16 06:56N 52°10' E 003°10'611.7
2017-Oct-16 06:27N 52°06' E 003°05'2010.1
2017-Oct-16 04:29N 51°51' E 002°44'611.8
2017-Oct-16 04:00N 51°47' E 002°37'510.3
2017-Oct-16 03:30N 51°43' E 002°32'510.2
2017-Oct-16 03:00N 51°39' E 002°26'510.5
2017-Oct-16 02:30N 51°35' E 002°21'510.8
2017-Oct-16 02:01N 51°31' E 002°15'611.3
2017-Oct-16 01:31N 51°27' E 002°10'611.3
2017-Oct-16 01:00N 51°23' E 002°03'611.6
2017-Oct-16 00:30N 51°18' E 001°57'612.0
2017-Oct-16 00:00N 51°14' E 001°51'612.4
2017-Oct-15 23:30N 51°09' E 001°44'612.9
2017-Oct-15 23:00N 51°04' E 001°38'713.4
2017-Oct-15 22:30N 50°59' E 001°31'712.9
2017-Oct-15 22:00N 50°54' E 001°25'713.7
2017-Oct-15 21:31N 50°47' E 001°24'714.2
2017-Oct-15 21:00N 50°40' E 001°20'814.4
2017-Oct-15 20:27N 50°36' E 001°10'714.2
2017-Oct-15 20:00N 50°32' E 001°02'713.7
2017-Oct-15 19:30N 50°29' E 000°52'1214.1
2017-Oct-15 18:41N 50°26' E 000°34'314.3
2017-Oct-15 18:29N 50°25' E 000°30'714.5
2017-Oct-15 18:00N 50°23' E 000°19'714.7
2017-Oct-15 17:30N 50°21' E 000°08'814.7
2017-Oct-15 16:57N 50°20' W 000°04'714.8
2017-Oct-15 16:31N 50°18' W 000°14'714.9
2017-Oct-15 16:01N 50°16' W 000°25'3114.1
2017-Oct-15 13:47N 50°09' W 001°13'712.7
2017-Oct-15 13:14N 50°07' W 001°23'512.3
2017-Oct-15 12:50N 50°06' W 001°31'1711.5
2017-Oct-15 11:23N 50°01' W 001°56'1310.7
2017-Oct-15 10:10N 49°57' W 002°15'210.7
2017-Oct-15 10:00N 49°57' W 002°18'611.1
2017-Oct-15 09:27N 49°55' W 002°27'511.3
2017-Oct-15 09:01N 49°54' W 002°35'611.6
2017-Oct-15 08:30N 49°52' W 002°43'612.0
2017-Oct-15 08:00N 49°50' W 002°52'612.0
2017-Oct-15 07:31N 49°47' W 003°00'612.7
2017-Oct-15 07:00N 49°47' W 003°10'612.9
2017-Oct-15 06:31N 49°45' W 003°20'713.1
2017-Oct-15 06:01N 49°44' W 003°30'713.2
2017-Oct-15 05:31N 49°40' W 003°38'713.3
2017-Oct-15 05:00N 49°36' W 003°46'713.2
2017-Oct-15 04:30N 49°32' W 003°55'713.4
2017-Oct-15 04:01N 49°28' W 004°03'713.4
2017-Oct-15 03:31N 49°24' W 004°11'713.6
2017-Oct-15 03:00N 49°20' W 004°20'713.6
2017-Oct-15 02:31N 49°17' W 004°29'813.7
2017-Oct-15 01:55N 49°12' W 004°39'613.9
2017-Oct-15 01:28N 49°08' W 004°46'613.9
2017-Oct-15 01:01N 49°04' W 004°54'813.5
2017-Oct-15 00:26N 49°01' W 005°04'811.7
2017-Oct-14 23:43N 48°56' W 005°15'314.0
2017-Oct-14 23:30N 48°55' W 005°19'5013.0
2017-Oct-14 19:38N 48°22' W 006°16'1313.1
2017-Oct-14 18:38N 48°14' W 006°32'1312.5
2017-Oct-14 17:38N 48°10' W 006°49'54312.9
2017-Oct-12 23:29N 39°23' W 009°53'613.5
2017-Oct-12 23:00N 39°16' W 009°52'713.3
2017-Oct-12 22:30N 39°10' W 009°51'713.5
2017-Oct-12 22:01N 39°03' W 009°51'713.6
2017-Oct-12 21:30N 38°56' W 009°51'713.6
2017-Oct-12 21:01N 38°49' W 009°51'813.7
2017-Oct-12 20:26N 38°41' W 009°50'613.5
2017-Oct-12 20:00N 38°36' W 009°47'713.4
2017-Oct-12 19:31N 38°32' W 009°41'714.0
2017-Oct-12 19:00N 38°28' W 009°34'714.3
2017-Oct-12 18:31N 38°23' W 009°27'713.6
2017-Oct-12 18:00N 38°20' W 009°19'714.1
2017-Oct-12 17:30N 38°19' W 009°10'713.3
2017-Oct-12 17:00N 38°22' W 009°03'611.8
2017-Oct-12 16:30N 38°27' W 008°58'4 8.6
2017-Oct-12 16:00N 38°30' W 008°55'2 3.9
2017-Oct-12 15:30N 38°31' W 008°53'0 0.0
2017-Oct-12 14:59N 38°31' W 008°53'0 0.0
2017-Oct-12 14:26N 38°31' W 008°53'0 0.0
2017-Oct-12 13:59N 38°31' W 008°53'0 0.0
2017-Oct-12 13:23N 38°31' W 008°53'0 0.0
2017-Oct-12 12:41N 38°31' W 008°53'0 0.0
2017-Oct-12 11:47N 38°31' W 008°53'0 0.0
2017-Oct-12 11:20N 38°31' W 008°53'0 0.0
2017-Oct-12 10:59N 38°31' W 008°53'0 0.0
2017-Oct-12 10:29N 38°31' W 008°53'0 0.0
2017-Oct-12 09:53N 38°31' W 008°53'0 0.0
2017-Oct-12 09:29N 38°31' W 008°53'0 0.0
2017-Oct-12 08:56N 38°31' W 008°53'0 0.0
2017-Oct-12 08:17N 38°31' W 008°53'0 0.0
2017-Oct-12 07:59N 38°31' W 008°53'0 0.0
2017-Oct-12 07:29N 38°31' W 008°53'0 0.0
2017-Oct-12 06:44N 38°31' W 008°53'0 0.0
2017-Oct-12 05:11N 38°31' W 008°53'0 0.0
2017-Oct-12 04:59N 38°31' W 008°53'0 0.0
2017-Oct-12 04:26N 38°31' W 008°53'0 0.0
2017-Oct-12 03:56N 38°31' W 008°53'0 0.0
2017-Oct-12 03:26N 38°31' W 008°53'0 0.0
2017-Oct-12 02:59N 38°31' W 008°53'0 0.0
2017-Oct-12 02:29N 38°31' W 008°53'0 0.0
2017-Oct-12 01:59N 38°31' W 008°53'0 0.0
2017-Oct-12 01:29N 38°31' W 008°53'0 0.0
2017-Oct-12 00:59N 38°31' W 008°53'0 0.0
2017-Oct-12 00:29N 38°31' W 008°53'0 0.0
2017-Oct-11 23:56N 38°31' W 008°53'0 0.0
2017-Oct-11 23:29N 38°31' W 008°53'0 0.0
2017-Oct-11 22:59N 38°31' W 008°53'0 0.0
2017-Oct-11 22:29N 38°31' W 008°53'0 0.0
2017-Oct-11 21:59N 38°31' W 008°53'0 0.0
2017-Oct-11 21:29N 38°31' W 008°53'0 0.0
2017-Oct-11 20:59N 38°31' W 008°53'0 0.0
2017-Oct-11 20:29N 38°31' W 008°53'0 0.0
2017-Oct-11 19:59N 38°31' W 008°53'0 0.0
2017-Oct-11 19:29N 38°31' W 008°53'0 0.0
2017-Oct-11 18:59N 38°31' W 008°53'0 0.0
2017-Oct-11 18:23N 38°31' W 008°53'0 0.0
2017-Oct-11 17:59N 38°31' W 008°53'0 0.0
2017-Oct-11 17:29N 38°31' W 008°53'0 0.0
2017-Oct-11 16:59N 38°31' W 008°53'0 0.0
2017-Oct-10 23:59N 38°31' W 008°53'0 0.0
2017-Oct-10 23:29N 38°31' W 008°53'0 0.0
2017-Oct-10 22:59N 38°31' W 008°53'0 0.0
2017-Oct-10 22:29N 38°31' W 008°53'0 0.0
2017-Oct-10 21:59N 38°31' W 008°53'0 0.0
2017-Oct-10 21:29N 38°31' W 008°53'0 0.0
2017-Oct-10 20:59N 38°31' W 008°53'0 0.0
2017-Oct-10 20:29N 38°31' W 008°53'0 0.0
2017-Oct-10 19:59N 38°31' W 008°53'0 0.0
2017-Oct-10 19:29N 38°31' W 008°53'0 0.0
2017-Oct-10 18:59N 38°31' W 008°53'0 0.0
2017-Oct-10 18:29N 38°31' W 008°53'0 0.0
2017-Oct-10 17:59N 38°31' W 008°53'0 0.0
2017-Oct-10 17:29N 38°31' W 008°53'0 0.0
2017-Oct-10 16:59N 38°31' W 008°53'0 0.0
2017-Oct-10 16:29N 38°31' W 008°53'0 0.0
2017-Oct-10 15:59N 38°31' W 008°53'0 0.0
2017-Oct-10 15:26N 38°31' W 008°53'0 0.0
2017-Oct-10 14:59N 38°31' W 008°53'0 0.0
2017-Oct-10 13:59N 38°31' W 008°53'0 0.0
2017-Oct-10 13:29N 38°31' W 008°53'0 0.0
2017-Oct-10 12:59N 38°31' W 008°53'0 0.0
2017-Oct-10 12:29N 38°31' W 008°53'0 0.0
2017-Oct-10 11:59N 38°31' W 008°53'0 0.0
2017-Oct-10 11:29N 38°31' W 008°53'0 0.0
2017-Oct-10 10:56N 38°31' W 008°53'0 0.0
2017-Oct-10 10:29N 38°31' W 008°53'0 0.0
2017-Oct-10 09:59N 38°31' W 008°53'0 0.0
2017-Oct-10 09:29N 38°31' W 008°53'0 0.0
2017-Oct-10 08:59N 38°31' W 008°53'0 0.0
2017-Oct-10 08:29N 38°31' W 008°53'0 0.0
2017-Oct-10 07:59N 38°31' W 008°53'0 0.0
2017-Oct-10 07:29N 38°31' W 008°53'0 0.0
2017-Oct-10 06:59N 38°31' W 008°53'0 0.0
2017-Oct-10 06:29N 38°31' W 008°53'0 0.0
2017-Oct-10 05:53N 38°31' W 008°53'0 0.0
2017-Oct-10 05:26N 38°31' W 008°53'0 0.0
2017-Oct-10 04:59N 38°31' W 008°53'0 0.0
2017-Oct-10 04:29N 38°31' W 008°53'0 0.0
2017-Oct-10 03:59N 38°31' W 008°53'0 0.0
2017-Oct-10 03:29N 38°31' W 008°53'0 0.0
2017-Oct-10 02:59N 38°31' W 008°53'0 0.0
2017-Oct-10 02:29N 38°31' W 008°53'0 0.0
2017-Oct-10 01:59N 38°31' W 008°53'0 0.0
2017-Oct-10 01:29N 38°31' W 008°53'0 0.0
2017-Oct-10 00:59N 38°31' W 008°53'0 0.0
2017-Oct-10 00:26N 38°31' W 008°53'0 0.0
2017-Oct-09 23:59N 38°31' W 008°53'0 0.0
2017-Oct-09 23:29N 38°31' W 008°53'0 0.0
2017-Oct-09 22:59N 38°31' W 008°53'0 0.0
2017-Oct-09 22:29N 38°31' W 008°53'0 0.0
2017-Oct-09 21:59N 38°31' W 008°53'0 0.0
2017-Oct-09 21:29N 38°31' W 008°53'0 0.0
2017-Oct-09 20:59N 38°31' W 008°53'0 0.0
2017-Oct-09 20:29N 38°31' W 008°53'0 0.0
2017-Oct-09 19:59N 38°31' W 008°53'0 0.0
2017-Oct-09 19:26N 38°31' W 008°53'0 0.0
2017-Oct-09 18:59N 38°31' W 008°53'0 0.0
2017-Oct-09 18:26N 38°31' W 008°53'0 0.0
2017-Oct-09 17:59N 38°31' W 008°53'0 0.0
2017-Oct-09 17:29N 38°31' W 008°53'0 0.0
2017-Oct-09 16:59N 38°31' W 008°53'0 0.0
2017-Oct-09 16:29N 38°31' W 008°53'0 0.1
2017-Oct-09 15:59N 38°31' W 008°53'0 0.0
2017-Oct-09 15:30N 38°31' W 008°53'0 0.0
2017-Oct-09 15:00N 38°31' W 008°53'0 0.0
2017-Oct-09 14:30N 38°31' W 008°53'0 0.0
2017-Oct-09 14:00N 38°31' W 008°53'0 0.0
2017-Oct-09 13:30N 38°31' W 008°53'0 0.0
2017-Oct-09 13:00N 38°31' W 008°53'0 0.0
2017-Oct-09 12:30N 38°31' W 008°53'0 0.0
2017-Oct-09 12:00N 38°31' W 008°53'0 0.0
2017-Oct-09 11:30N 38°31' W 008°53'0 0.0
2017-Oct-09 11:00N 38°31' W 008°53'0 0.0
2017-Oct-09 10:31N 38°31' W 008°53'0 0.0
2017-Oct-09 10:00N 38°31' W 008°53'0 0.0
2017-Oct-09 09:30N 38°31' W 008°53'0 0.0
2017-Oct-09 09:00N 38°31' W 008°53'0 0.0
2017-Oct-09 08:30N 38°31' W 008°53'0 0.0
2017-Oct-09 08:00N 38°31' W 008°53'0 0.0
2017-Oct-09 07:30N 38°31' W 008°53'0 0.0
2017-Oct-09 07:00N 38°31' W 008°53'0 0.0
2017-Oct-09 06:31N 38°31' W 008°53'0 0.0
2017-Oct-09 06:00N 38°31' W 008°53'0 0.0
2017-Oct-09 05:30N 38°31' W 008°53'0 0.0
2017-Oct-09 05:00N 38°31' W 008°53'0 0.0
2017-Oct-09 04:30N 38°31' W 008°53'0 0.0
2017-Oct-09 04:00N 38°31' W 008°53'0 0.0
2017-Oct-09 03:30N 38°31' W 008°53'0 0.0
2017-Oct-09 03:00N 38°31' W 008°53'0 0.0
2017-Oct-09 02:30N 38°31' W 008°53'0 0.0
2017-Oct-09 02:00N 38°31' W 008°53'0 0.0
2017-Oct-09 01:30N 38°31' W 008°53'0 0.0
2017-Oct-09 01:00N 38°31' W 008°53'0 0.0
2017-Oct-09 00:30N 38°31' W 008°53'0 0.0
2017-Oct-09 00:00N 38°31' W 008°53'0 0.0
2017-Oct-08 23:30N 38°31' W 008°53'0 0.0
2017-Oct-08 23:00N 38°31' W 008°53'0 0.0
2017-Oct-08 22:30N 38°31' W 008°53'0 0.0
2017-Oct-08 22:00N 38°31' W 008°53'0 0.0
2017-Oct-08 21:30N 38°31' W 008°53'0 0.0
2017-Oct-08 21:00N 38°31' W 008°53'  
Track history (hours):
 
Tides and Currents Weather Stations Pressure Air Temp Water Temp Dewpoint Dewpoint Depression Visibility Wind Speed Wind Dir Waves Ship Positions

Ikan Parang

Last reported at 2017-Oct-18 20:31 UTC. Time now 2017-Oct-18 20:40 UTC.
Position N 55°53' E 016°11'.

Length 183 m; draft 7.6 m.

Type: Cargo ship. MMSI: 566238000.

Date/timePositionNaut miles runAvg speedWind from/ knotsBaromVisibWave heightAir tempDewpointWater temp
2017-Oct-18 20:31N 55°53' E 016°11'713.2
2017-Oct-18 20:01N 55°50' E 016°00'713.3
2017-Oct-18 19:31N 55°46' E 015°50'612.7
2017-Oct-18 19:01N 55°43' E 015°41'713.0
2017-Oct-18 18:31N 55°40' E 015°31'713.7
2017-Oct-18 18:00N 55°36' E 015°21'713.8
2017-Oct-18 17:30N 55°33' E 015°09'713.8
2017-Oct-18 17:00N 55°30' E 014°58'713.9
2017-Oct-18 16:28N 55°26' E 014°47'613.7
2017-Oct-18 16:00N 55°23' E 014°38'713.6
2017-Oct-18 15:30N 55°17' E 014°30'713.7
2017-Oct-18 15:00N 55°12' E 014°23'1413.7
2017-Oct-18 14:00N 55°01' E 014°08'813.8
2017-Oct-18 13:27N 54°59' E 013°55'814.8
2017-Oct-18 12:56N 54°56' E 013°43'4213.2
2017-Oct-18 09:47N 54°41' E 012°36'412.8
2017-Oct-18 09:30N 54°39' E 012°31'612.3
2017-Oct-18 09:00N 54°36' E 012°22'612.6
2017-Oct-18 08:30N 54°30' E 012°16'612.2
2017-Oct-18 08:00N 54°25' E 012°11'79 8.6
2017-Oct-17 22:48N 54°21' E 009°55'2 5.1
2017-Oct-17 22:30N 54°21' E 009°53'3 6.3
2017-Oct-17 22:00N 54°22' E 009°48'3 6.7
2017-Oct-17 21:30N 54°20' E 009°43'3 5.3
2017-Oct-17 21:00N 54°18' E 009°40'3 5.9
2017-Oct-17 20:30N 54°15' E 009°37'3 6.2
2017-Oct-17 20:00N 54°13' E 009°35'3 6.5
2017-Oct-17 19:30N 54°11' E 009°30'3 6.9
2017-Oct-17 19:00N 54°10' E 009°24'3 5.8
2017-Oct-17 18:30N 54°08' E 009°20'3 6.6
2017-Oct-17 18:00N 54°05' E 009°19'4 7.1
2017-Oct-17 17:30N 54°01' E 009°18'3 6.6
2017-Oct-17 17:00N 53°58' E 009°16'3 6.8
2017-Oct-17 16:30N 53°56' E 009°12'2 3.8
2017-Oct-17 16:00N 53°54' E 009°10'1 2.0
2017-Oct-17 15:30N 53°54' E 009°09'0 0.0
2017-Oct-17 15:00N 53°54' E 009°09'1 2.4
2017-Oct-17 14:30N 53°53' E 009°07'2 5.0
2017-Oct-17 14:01N 53°52' E 009°03'1 2.4
2017-Oct-17 13:31N 53°52' E 009°01'0 0.3
2017-Oct-17 13:00N 53°52' E 009°01'0 0.1
2017-Oct-17 12:30N 53°52' E 009°01'0 0.1
2017-Oct-17 12:00N 53°52' E 009°01'0 0.0
2017-Oct-17 11:30N 53°52' E 009°01'0 0.0
2017-Oct-17 11:00N 53°52' E 009°01'0 0.0
2017-Oct-17 10:30N 53°52' E 009°01'0 0.1
2017-Oct-17 10:00N 53°52' E 009°01'0 0.1
2017-Oct-17 09:30N 53°52' E 009°01'0 0.1
2017-Oct-17 09:00N 53°52' E 009°01'0 0.0
2017-Oct-17 08:30N 53°52' E 009°01'0 0.0
2017-Oct-17 08:00N 53°52' E 009°01'0 0.0
2017-Oct-17 07:31N 53°52' E 009°01'0 0.0
2017-Oct-17 07:01N 53°52' E 009°01'0 0.5
2017-Oct-17 06:31N 53°52' E 009°01'4 7.2
2017-Oct-17 06:00N 53°51' E 008°55'511.0
2017-Oct-17 05:30N 53°51' E 008°46'510.8
2017-Oct-17 05:01N 53°55' E 008°40'711.4
2017-Oct-17 04:25N 53°58' E 008°30'511.8
2017-Oct-17 03:59N 53°59' E 008°22'6411.1
2017-Oct-16 22:13N 53°47' E 006°35'4010.3
2017-Oct-16 18:22N 53°34' E 005°31'410.6
2017-Oct-16 17:59N 53°33' E 005°25'4 9.3
2017-Oct-16 17:30N 53°32' E 005°18'5 9.2
2017-Oct-16 17:00N 53°30' E 005°10'5 9.4
2017-Oct-16 16:31N 53°29' E 005°03'5 9.6
2017-Oct-16 16:00N 53°27' E 004°55'5 9.7
2017-Oct-16 15:29N 53°25' E 004°48'811.5
2017-Oct-16 14:47N 53°19' E 004°39'413.3
2017-Oct-16 14:30N 53°15' E 004°37'15 9.7
2017-Oct-16 12:54N 53°02' E 004°22'711.5
2017-Oct-16 12:19N 52°56' E 004°18'412.2
2017-Oct-16 12:00N 52°53' E 004°15'612.3
2017-Oct-16 11:30N 52°48' E 004°10'611.6
2017-Oct-16 10:59N 52°42' E 004°05'4 9.3
2017-Oct-16 10:30N 52°39' E 003°60'611.4
2017-Oct-16 10:00N 52°35' E 003°54'611.0
2017-Oct-16 09:29N 52°31' E 003°46'2011.7
2017-Oct-16 07:47N 52°18' E 003°22'512.2
2017-Oct-16 07:24N 52°15' E 003°16'612.0
2017-Oct-16 06:56N 52°10' E 003°10'611.7
2017-Oct-16 06:27N 52°06' E 003°05'2010.1
2017-Oct-16 04:29N 51°51' E 002°44'611.8
2017-Oct-16 04:00N 51°47' E 002°37'510.3
2017-Oct-16 03:30N 51°43' E 002°32'510.2
2017-Oct-16 03:00N 51°39' E 002°26'510.5
2017-Oct-16 02:30N 51°35' E 002°21'510.8
2017-Oct-16 02:01N 51°31' E 002°15'611.3
2017-Oct-16 01:31N 51°27' E 002°10'611.3
2017-Oct-16 01:00N 51°23' E 002°03'611.6
2017-Oct-16 00:30N 51°18' E 001°57'612.0
2017-Oct-16 00:00N 51°14' E 001°51'612.4
2017-Oct-15 23:30N 51°09' E 001°44'612.9
2017-Oct-15 23:00N 51°04' E 001°38'713.4
2017-Oct-15 22:30N 50°59' E 001°31'712.9
2017-Oct-15 22:00N 50°54' E 001°25'713.7
2017-Oct-15 21:31N 50°47' E 001°24'714.2
2017-Oct-15 21:00N 50°40' E 001°20'814.4
2017-Oct-15 20:27N 50°36' E 001°10'714.2
2017-Oct-15 20:00N 50°32' E 001°02'713.7
2017-Oct-15 19:30N 50°29' E 000°52'1214.1
2017-Oct-15 18:41N 50°26' E 000°34'314.3
2017-Oct-15 18:29N 50°25' E 000°30'714.5
2017-Oct-15 18:00N 50°23' E 000°19'714.7
2017-Oct-15 17:30N 50°21' E 000°08'814.7
2017-Oct-15 16:57N 50°20' W 000°04'714.8
2017-Oct-15 16:31N 50°18' W 000°14'714.9
2017-Oct-15 16:01N 50°16' W 000°25'3114.1
2017-Oct-15 13:47N 50°09' W 001°13'712.7
2017-Oct-15 13:14N 50°07' W 001°23'512.3
2017-Oct-15 12:50N 50°06' W 001°31'1711.5
2017-Oct-15 11:23N 50°01' W 001°56'1310.7
2017-Oct-15 10:10N 49°57' W 002°15'210.7
2017-Oct-15 10:00N 49°57' W 002°18'611.1
2017-Oct-15 09:27N 49°55' W 002°27'511.3
2017-Oct-15 09:01N 49°54' W 002°35'611.6
2017-Oct-15 08:30N 49°52' W 002°43'612.0
2017-Oct-15 08:00N 49°50' W 002°52'612.0
2017-Oct-15 07:31N 49°47' W 003°00'612.7
2017-Oct-15 07:00N 49°47' W 003°10'612.9
2017-Oct-15 06:31N 49°45' W 003°20'713.1
2017-Oct-15 06:01N 49°44' W 003°30'713.2
2017-Oct-15 05:31N 49°40' W 003°38'713.3
2017-Oct-15 05:00N 49°36' W 003°46'713.2
2017-Oct-15 04:30N 49°32' W 003°55'713.4
2017-Oct-15 04:01N 49°28' W 004°03'713.4
2017-Oct-15 03:31N 49°24' W 004°11'713.6
2017-Oct-15 03:00N 49°20' W 004°20'713.6
2017-Oct-15 02:31N 49°17' W 004°29'813.7
2017-Oct-15 01:55N 49°12' W 004°39'613.9
2017-Oct-15 01:28N 49°08' W 004°46'613.9
2017-Oct-15 01:01N 49°04' W 004°54'813.5
2017-Oct-15 00:26N 49°01' W 005°04'811.7
2017-Oct-14 23:43N 48°56' W 005°15'314.0
2017-Oct-14 23:30N 48°55' W 005°19'5013.0
2017-Oct-14 19:38N 48°22' W 006°16'1313.1
2017-Oct-14 18:38N 48°14' W 006°32'1312.5
2017-Oct-14 17:38N 48°10' W 006°49'54312.9
2017-Oct-12 23:29N 39°23' W 009°53'613.5
2017-Oct-12 23:00N 39°16' W 009°52'713.3
2017-Oct-12 22:30N 39°10' W 009°51'713.5
2017-Oct-12 22:01N 39°03' W 009°51'713.6
2017-Oct-12 21:30N 38°56' W 009°51'713.6
2017-Oct-12 21:01N 38°49' W 009°51'813.7
2017-Oct-12 20:26N 38°41' W 009°50'613.5
2017-Oct-12 20:00N 38°36' W 009°47'713.4
2017-Oct-12 19:31N 38°32' W 009°41'714.0
2017-Oct-12 19:00N 38°28' W 009°34'714.3
2017-Oct-12 18:31N 38°23' W 009°27'713.6
2017-Oct-12 18:00N 38°20' W 009°19'714.1
2017-Oct-12 17:30N 38°19' W 009°10'713.3
2017-Oct-12 17:00N 38°22' W 009°03'611.8
2017-Oct-12 16:30N 38°27' W 008°58'4 8.6
2017-Oct-12 16:00N 38°30' W 008°55'2 3.9
2017-Oct-12 15:30N 38°31' W 008°53'0 0.0
2017-Oct-12 14:59N 38°31' W 008°53'0 0.0
2017-Oct-12 14:26N 38°31' W 008°53'0 0.0
2017-Oct-12 13:59N 38°31' W 008°53'0 0.0
2017-Oct-12 13:23N 38°31' W 008°53'0 0.0
2017-Oct-12 12:41N 38°31' W 008°53'0 0.0
2017-Oct-12 11:47N 38°31' W 008°53'0 0.0
2017-Oct-12 11:20N 38°31' W 008°53'0 0.0
2017-Oct-12 10:59N 38°31' W 008°53'0 0.0
2017-Oct-12 10:29N 38°31' W 008°53'0 0.0
2017-Oct-12 09:53N 38°31' W 008°53'0 0.0
2017-Oct-12 09:29N 38°31' W 008°53'0 0.0
2017-Oct-12 08:56N 38°31' W 008°53'0 0.0
2017-Oct-12 08:17N 38°31' W 008°53'0 0.0
2017-Oct-12 07:59N 38°31' W 008°53'0 0.0
2017-Oct-12 07:29N 38°31' W 008°53'0 0.0
2017-Oct-12 06:44N 38°31' W 008°53'0 0.0
2017-Oct-12 05:11N 38°31' W 008°53'0 0.0
2017-Oct-12 04:59N 38°31' W 008°53'0 0.0
2017-Oct-12 04:26N 38°31' W 008°53'0 0.0
2017-Oct-12 03:56N 38°31' W 008°53'0 0.0
2017-Oct-12 03:26N 38°31' W 008°53'0 0.0
2017-Oct-12 02:59N 38°31' W 008°53'0 0.0
2017-Oct-12 02:29N 38°31' W 008°53'0 0.0
2017-Oct-12 01:59N 38°31' W 008°53'0 0.0
2017-Oct-12 01:29N 38°31' W 008°53'0 0.0
2017-Oct-12 00:59N 38°31' W 008°53'0 0.0
2017-Oct-12 00:29N 38°31' W 008°53'0 0.0
2017-Oct-11 23:56N 38°31' W 008°53'0 0.0
2017-Oct-11 23:29N 38°31' W 008°53'0 0.0
2017-Oct-11 22:59N 38°31' W 008°53'0 0.0
2017-Oct-11 22:29N 38°31' W 008°53'0 0.0
2017-Oct-11 21:59N 38°31' W 008°53'0 0.0
2017-Oct-11 21:29N 38°31' W 008°53'0 0.0
2017-Oct-11 20:59N 38°31' W 008°53'0 0.0
2017-Oct-11 20:29N 38°31' W 008°53'0 0.0
2017-Oct-11 19:59N 38°31' W 008°53'0 0.0
2017-Oct-11 19:29N 38°31' W 008°53'0 0.0
2017-Oct-11 18:59N 38°31' W 008°53'0 0.0
2017-Oct-11 18:23N 38°31' W 008°53'0 0.0
2017-Oct-11 17:59N 38°31' W 008°53'0 0.0
2017-Oct-11 17:29N 38°31' W 008°53'0 0.0
2017-Oct-11 16:59N 38°31' W 008°53'0 0.0
2017-Oct-10 23:59N 38°31' W 008°53'0 0.0
2017-Oct-10 23:29N 38°31' W 008°53'0 0.0
2017-Oct-10 22:59N 38°31' W 008°53'0 0.0
2017-Oct-10 22:29N 38°31' W 008°53'0 0.0
2017-Oct-10 21:59N 38°31' W 008°53'0 0.0
2017-Oct-10 21:29N 38°31' W 008°53'0 0.0
2017-Oct-10 20:59N 38°31' W 008°53'0 0.0
2017-Oct-10 20:29N 38°31' W 008°53'0 0.0
2017-Oct-10 19:59N 38°31' W 008°53'0 0.0
2017-Oct-10 19:29N 38°31' W 008°53'0 0.0
2017-Oct-10 18:59N 38°31' W 008°53'0 0.0
2017-Oct-10 18:29N 38°31' W 008°53'0 0.0
2017-Oct-10 17:59N 38°31' W 008°53'0 0.0
2017-Oct-10 17:29N 38°31' W 008°53'0 0.0
2017-Oct-10 16:59N 38°31' W 008°53'0 0.0
2017-Oct-10 16:29N 38°31' W 008°53'0 0.0
2017-Oct-10 15:59N 38°31' W 008°53'0 0.0
2017-Oct-10 15:26N 38°31' W 008°53'0 0.0
2017-Oct-10 14:59N 38°31' W 008°53'0 0.0
2017-Oct-10 13:59N 38°31' W 008°53'0 0.0
2017-Oct-10 13:29N 38°31' W 008°53'0 0.0
2017-Oct-10 12:59N 38°31' W 008°53'0 0.0
2017-Oct-10 12:29N 38°31' W 008°53'0 0.0
2017-Oct-10 11:59N 38°31' W 008°53'0 0.0
2017-Oct-10 11:29N 38°31' W 008°53'0 0.0
2017-Oct-10 10:56N 38°31' W 008°53'0 0.0
2017-Oct-10 10:29N 38°31' W 008°53'0 0.0
2017-Oct-10 09:59N 38°31' W 008°53'0 0.0
2017-Oct-10 09:29N 38°31' W 008°53'0 0.0
2017-Oct-10 08:59N 38°31' W 008°53'0 0.0
2017-Oct-10 08:29N 38°31' W 008°53'0 0.0
2017-Oct-10 07:59N 38°31' W 008°53'0 0.0
2017-Oct-10 07:29N 38°31' W 008°53'0 0.0
2017-Oct-10 06:59N 38°31' W 008°53'0 0.0
2017-Oct-10 06:29N 38°31' W 008°53'0 0.0
2017-Oct-10 05:53N 38°31' W 008°53'0 0.0
2017-Oct-10 05:26N 38°31' W 008°53'0 0.0
2017-Oct-10 04:59N 38°31' W 008°53'0 0.0
2017-Oct-10 04:29N 38°31' W 008°53'0 0.0
2017-Oct-10 03:59N 38°31' W 008°53'0 0.0
2017-Oct-10 03:29N 38°31' W 008°53'0 0.0
2017-Oct-10 02:59N 38°31' W 008°53'0 0.0
2017-Oct-10 02:29N 38°31' W 008°53'0 0.0
2017-Oct-10 01:59N 38°31' W 008°53'0 0.0
2017-Oct-10 01:29N 38°31' W 008°53'0 0.0
2017-Oct-10 00:59N 38°31' W 008°53'0 0.0
2017-Oct-10 00:26N 38°31' W 008°53'0 0.0
2017-Oct-09 23:59N 38°31' W 008°53'0 0.0
2017-Oct-09 23:29N 38°31' W 008°53'0 0.0
2017-Oct-09 22:59N 38°31' W 008°53'0 0.0
2017-Oct-09 22:29N 38°31' W 008°53'0 0.0
2017-Oct-09 21:59N 38°31' W 008°53'0 0.0
2017-Oct-09 21:29N 38°31' W 008°53'0 0.0
2017-Oct-09 20:59N 38°31' W 008°53'0 0.0
2017-Oct-09 20:29N 38°31' W 008°53'0 0.0
2017-Oct-09 19:59N 38°31' W 008°53'0 0.0
2017-Oct-09 19:26N 38°31' W 008°53'0 0.0
2017-Oct-09 18:59N 38°31' W 008°53'0 0.0
2017-Oct-09 18:26N 38°31' W 008°53'0 0.0
2017-Oct-09 17:59N 38°31' W 008°53'0 0.0
2017-Oct-09 17:29N 38°31' W 008°53'0 0.0
2017-Oct-09 16:59N 38°31' W 008°53'0 0.0
2017-Oct-09 16:29N 38°31' W 008°53'0 0.1
2017-Oct-09 15:59N 38°31' W 008°53'0 0.0
2017-Oct-09 15:30N 38°31' W 008°53'0 0.0
2017-Oct-09 15:00N 38°31' W 008°53'0 0.0
2017-Oct-09 14:30N 38°31' W 008°53'0 0.0
2017-Oct-09 14:00N 38°31' W 008°53'0 0.0
2017-Oct-09 13:30N 38°31' W 008°53'0 0.0
2017-Oct-09 13:00N 38°31' W 008°53'0 0.0
2017-Oct-09 12:30N 38°31' W 008°53'0 0.0
2017-Oct-09 12:00N 38°31' W 008°53'0 0.0
2017-Oct-09 11:30N 38°31' W 008°53'0 0.0
2017-Oct-09 11:00N 38°31' W 008°53'0 0.0
2017-Oct-09 10:31N 38°31' W 008°53'0 0.0
2017-Oct-09 10:00N 38°31' W 008°53'0 0.0
2017-Oct-09 09:30N 38°31' W 008°53'0 0.0
2017-Oct-09 09:00N 38°31' W 008°53'0 0.0
2017-Oct-09 08:30N 38°31' W 008°53'0 0.0
2017-Oct-09 08:00N 38°31' W 008°53'0 0.0
2017-Oct-09 07:30N 38°31' W 008°53'0 0.0
2017-Oct-09 07:00N 38°31' W 008°53'0 0.0
2017-Oct-09 06:31N 38°31' W 008°53'0 0.0
2017-Oct-09 06:00N 38°31' W 008°53'0 0.0
2017-Oct-09 05:30N 38°31' W 008°53'0 0.0
2017-Oct-09 05:00N 38°31' W 008°53'0 0.0
2017-Oct-09 04:30N 38°31' W 008°53'0 0.0
2017-Oct-09 04:00N 38°31' W 008°53'0 0.0
2017-Oct-09 03:30N 38°31' W 008°53'0 0.0
2017-Oct-09 03:00N 38°31' W 008°53'0 0.0
2017-Oct-09 02:30N 38°31' W 008°53'0 0.0
2017-Oct-09 02:00N 38°31' W 008°53'0 0.0
2017-Oct-09 01:30N 38°31' W 008°53'0 0.0
2017-Oct-09 01:00N 38°31' W 008°53'0 0.0
2017-Oct-09 00:30N 38°31' W 008°53'0 0.0
2017-Oct-09 00:00N 38°31' W 008°53'0 0.0
2017-Oct-08 23:30N 38°31' W 008°53'0 0.0
2017-Oct-08 23:00N 38°31' W 008°53'0 0.0
2017-Oct-08 22:30N 38°31' W 008°53'0 0.0
2017-Oct-08 22:00N 38°31' W 008°53'0 0.0
2017-Oct-08 21:30N 38°31' W 008°53'0 0.0
2017-Oct-08 21:00N 38°31' W 008°53'  

Dump ship's entire track history